sensor_id;sensor_type;location;lat;lon;timestamp;pressure;altitude;pressure_sealevel;temperature;humidity
4398;BME280;2213;49.720;7.296;2023-07-22T00:02:08;98018.88;;;17.84;96.21
4398;BME280;2213;49.720;7.296;2023-07-22T00:04:37;98012.09;;;17.76;96.75
4398;BME280;2213;49.720;7.296;2023-07-22T00:07:08;98022.66;;;17.76;96.60
4398;BME280;2213;49.720;7.296;2023-07-22T00:09:38;98020.25;;;17.75;96.94
4398;BME280;2213;49.720;7.296;2023-07-22T00:12:12;98025.41;;;17.81;96.62
4398;BME280;2213;49.720;7.296;2023-07-22T00:14:42;98022.81;;;17.70;97.17
4398;BME280;2213;49.720;7.296;2023-07-22T00:17:12;98020.03;;;17.65;97.92
4398;BME280;2213;49.720;7.296;2023-07-22T00:19:44;98021.06;;;17.64;98.10
4398;BME280;2213;49.720;7.296;2023-07-22T00:22:14;98015.69;;;17.58;98.60
4398;BME280;2213;49.720;7.296;2023-07-22T00:24:44;98018.75;;;17.55;99.21
4398;BME280;2213;49.720;7.296;2023-07-22T00:27:17;98012.44;;;17.56;98.93
4398;BME280;2213;49.720;7.296;2023-07-22T00:29:47;98008.78;;;17.57;99.45
4398;BME280;2213;49.720;7.296;2023-07-22T00:32:18;98009.59;;;17.58;99.53
4398;BME280;2213;49.720;7.296;2023-07-22T00:34:48;98006.78;;;17.53;99.45
4398;BME280;2213;49.720;7.296;2023-07-22T00:37:19;97998.88;;;17.41;100.00
4398;BME280;2213;49.720;7.296;2023-07-22T00:39:49;98001.19;;;17.26;100.00
4398;BME280;2213;49.720;7.296;2023-07-22T00:42:21;97998.31;;;17.16;100.00
4398;BME280;2213;49.720;7.296;2023-07-22T00:44:52;97997.16;;;17.12;100.00
4398;BME280;2213;49.720;7.296;2023-07-22T00:47:22;98000.16;;;17.16;100.00
4398;BME280;2213;49.720;7.296;2023-07-22T00:49:52;97993.59;;;17.18;100.00
4398;BME280;2213;49.720;7.296;2023-07-22T00:52:21;97994.41;;;17.19;100.00
4398;BME280;2213;49.720;7.296;2023-07-22T00:54:51;97987.50;;;17.29;100.00
4398;BME280;2213;49.720;7.296;2023-07-22T00:57:23;97983.28;;;17.28;100.00
4398;BME280;2213;49.720;7.296;2023-07-22T00:59:52;97986.13;;;17.27;100.00
4398;BME280;2213;49.720;7.296;2023-07-22T01:02:24;97989.94;;;17.19;100.00
4398;BME280;2213;49.720;7.296;2023-07-22T01:04:54;97987.75;;;17.28;100.00
4398;BME280;2213;49.720;7.296;2023-07-22T01:07:24;97991.63;;;17.25;100.00
4398;BME280;2213;49.720;7.296;2023-07-22T01:09:57;97984.63;;;17.19;100.00
4398;BME280;2213;49.720;7.296;2023-07-22T01:12:28;97993.38;;;17.20;100.00
4398;BME280;2213;49.720;7.296;2023-07-22T01:14:57;97989.13;;;17.19;100.00
4398;BME280;2213;49.720;7.296;2023-07-22T01:17:27;97987.19;;;17.14;100.00
4398;BME280;2213;49.720;7.296;2023-07-22T01:19:57;97989.03;;;17.14;100.00
4398;BME280;2213;49.720;7.296;2023-07-22T01:22:28;97977.97;;;17.17;100.00
4398;BME280;2213;49.720;7.296;2023-07-22T01:24:59;97982.81;;;17.08;100.00
4398;BME280;2213;49.720;7.296;2023-07-22T01:27:29;97982.09;;;17.01;100.00
4398;BME280;2213;49.720;7.296;2023-07-22T01:30:00;97983.94;;;17.12;100.00
4398;BME280;2213;49.720;7.296;2023-07-22T01:32:31;97985.00;;;17.11;100.00
4398;BME280;2213;49.720;7.296;2023-07-22T01:35:01;97987.38;;;17.01;100.00
4398;BME280;2213;49.720;7.296;2023-07-22T01:37:30;97984.66;;;16.96;100.00
4398;BME280;2213;49.720;7.296;2023-07-22T01:40:01;97994.03;;;16.80;100.00
4398;BME280;2213;49.720;7.296;2023-07-22T01:42:40;97989.31;;;16.71;100.00
4398;BME280;2213;49.720;7.296;2023-07-22T01:45:10;97987.50;;;16.71;100.00
4398;BME280;2213;49.720;7.296;2023-07-22T01:47:40;97992.63;;;16.66;100.00
4398;BME280;2213;49.720;7.296;2023-07-22T01:50:11;97991.25;;;16.64;100.00
4398;BME280;2213;49.720;7.296;2023-07-22T01:52:41;97982.78;;;16.62;100.00
4398;BME280;2213;49.720;7.296;2023-07-22T01:55:12;97987.31;;;16.54;100.00
4398;BME280;2213;49.720;7.296;2023-07-22T01:57:42;97986.16;;;16.50;100.00
4398;BME280;2213;49.720;7.296;2023-07-22T02:00:13;97988.66;;;16.45;100.00
4398;BME280;2213;49.720;7.296;2023-07-22T02:02:44;97989.66;;;16.33;100.00
4398;BME280;2213;49.720;7.296;2023-07-22T02:05:14;97991.72;;;16.31;100.00
4398;BME280;2213;49.720;7.296;2023-07-22T02:07:44;97983.00;;;16.30;100.00
4398;BME280;2213;49.720;7.296;2023-07-22T02:10:16;97984.47;;;16.26;100.00
4398;BME280;2213;49.720;7.296;2023-07-22T02:12:46;97983.22;;;16.29;100.00
4398;BME280;2213;49.720;7.296;2023-07-22T02:15:18;97985.38;;;16.20;100.00
4398;BME280;2213;49.720;7.296;2023-07-22T02:17:49;97984.22;;;16.16;100.00
4398;BME280;2213;49.720;7.296;2023-07-22T02:20:20;97989.94;;;16.13;100.00
4398;BME280;2213;49.720;7.296;2023-07-22T02:22:50;97993.78;;;15.99;100.00
4398;BME280;2213;49.720;7.296;2023-07-22T02:25:21;97990.78;;;15.95;100.00
4398;BME280;2213;49.720;7.296;2023-07-22T02:27:51;97989.09;;;15.83;100.00
4398;BME280;2213;49.720;7.296;2023-07-22T02:30:22;97983.81;;;15.83;100.00
4398;BME280;2213;49.720;7.296;2023-07-22T02:32:51;97989.53;;;15.80;100.00
4398;BME280;2213;49.720;7.296;2023-07-22T02:35:20;97977.78;;;15.64;100.00
4398;BME280;2213;49.720;7.296;2023-07-22T02:37:50;97986.41;;;15.71;100.00
4398;BME280;2213;49.720;7.296;2023-07-22T02:40:22;97975.94;;;15.65;100.00
4398;BME280;2213;49.720;7.296;2023-07-22T02:42:52;97979.41;;;15.65;100.00
4398;BME280;2213;49.720;7.296;2023-07-22T02:45:22;97992.22;;;15.62;100.00
4398;BME280;2213;49.720;7.296;2023-07-22T02:47:52;97993.22;;;15.60;100.00
4398;BME280;2213;49.720;7.296;2023-07-22T02:50:23;97985.22;;;15.67;100.00
4398;BME280;2213;49.720;7.296;2023-07-22T02:52:52;97981.22;;;15.65;100.00
4398;BME280;2213;49.720;7.296;2023-07-22T02:55:23;97995.50;;;15.57;100.00
4398;BME280;2213;49.720;7.296;2023-07-22T02:57:53;97985.75;;;15.57;100.00
4398;BME280;2213;49.720;7.296;2023-07-22T03:00:22;97985.03;;;15.50;100.00
4398;BME280;2213;49.720;7.296;2023-07-22T03:02:55;97985.06;;;15.44;100.00
4398;BME280;2213;49.720;7.296;2023-07-22T03:05:29;97985.91;;;15.38;100.00
4398;BME280;2213;49.720;7.296;2023-07-22T03:07:59;97990.81;;;15.34;100.00
4398;BME280;2213;49.720;7.296;2023-07-22T03:10:31;97987.53;;;15.39;100.00
4398;BME280;2213;49.720;7.296;2023-07-22T03:13:01;97982.34;;;15.32;100.00
4398;BME280;2213;49.720;7.296;2023-07-22T03:15:31;97985.84;;;15.26;100.00
4398;BME280;2213;49.720;7.296;2023-07-22T03:18:01;97998.13;;;15.14;100.00
4398;BME280;2213;49.720;7.296;2023-07-22T03:20:31;97994.91;;;15.12;100.00
4398;BME280;2213;49.720;7.296;2023-07-22T03:23:01;98000.63;;;15.09;100.00
4398;BME280;2213;49.720;7.296;2023-07-22T03:25:33;97995.91;;;15.11;100.00
4398;BME280;2213;49.720;7.296;2023-07-22T03:28:06;98001.63;;;15.08;100.00
4398;BME280;2213;49.720;7.296;2023-07-22T03:30:37;97993.56;;;15.03;100.00
4398;BME280;2213;49.720;7.296;2023-07-22T03:33:08;97994.75;;;15.07;100.00
4398;BME280;2213;49.720;7.296;2023-07-22T03:35:39;98002.94;;;14.99;100.00
4398;BME280;2213;49.720;7.296;2023-07-22T03:38:09;97996.91;;;14.92;100.00
4398;BME280;2213;49.720;7.296;2023-07-22T03:40:41;98009.84;;;14.93;100.00
4398;BME280;2213;49.720;7.296;2023-07-22T03:43:12;98002.19;;;14.92;100.00
4398;BME280;2213;49.720;7.296;2023-07-22T03:45:42;98009.03;;;14.93;100.00
4398;BME280;2213;49.720;7.296;2023-07-22T03:48:12;98002.50;;;15.02;100.00
4398;BME280;2213;49.720;7.296;2023-07-22T03:50:43;98006.22;;;14.94;100.00
4398;BME280;2213;49.720;7.296;2023-07-22T03:53:14;98008.28;;;14.86;100.00
4398;BME280;2213;49.720;7.296;2023-07-22T03:55:45;98007.13;;;14.82;100.00
4398;BME280;2213;49.720;7.296;2023-07-22T03:58:15;98001.88;;;14.75;100.00
4398;BME280;2213;49.720;7.296;2023-07-22T04:00:49;98012.03;;;14.78;100.00
4398;BME280;2213;49.720;7.296;2023-07-22T04:03:19;98009.00;;;14.75;100.00
4398;BME280;2213;49.720;7.296;2023-07-22T04:05:54;98012.78;;;14.85;100.00
4398;BME280;2213;49.720;7.296;2023-07-22T04:08:25;98013.28;;;14.94;100.00
4398;BME280;2213;49.720;7.296;2023-07-22T04:10:57;98011.72;;;14.86;100.00
4398;BME280;2213;49.720;7.296;2023-07-22T04:13:28;98012.81;;;14.79;100.00
4398;BME280;2213;49.720;7.296;2023-07-22T04:15:58;98011.72;;;14.61;100.00
4398;BME280;2213;49.720;7.296;2023-07-22T04:18:28;98014.91;;;14.70;100.00
4398;BME280;2213;49.720;7.296;2023-07-22T04:21:03;98016.91;;;14.75;100.00
4398;BME280;2213;49.720;7.296;2023-07-22T04:23:33;98014.69;;;14.72;100.00
4398;BME280;2213;49.720;7.296;2023-07-22T04:26:04;98013.50;;;14.68;100.00
4398;BME280;2213;49.720;7.296;2023-07-22T04:28:36;98018.16;;;14.66;100.00
4398;BME280;2213;49.720;7.296;2023-07-22T04:31:06;98018.03;;;14.60;100.00
4398;BME280;2213;49.720;7.296;2023-07-22T04:33:37;98024.28;;;14.59;100.00
4398;BME280;2213;49.720;7.296;2023-07-22T04:36:06;98026.72;;;14.61;100.00
4398;BME280;2213;49.720;7.296;2023-07-22T04:38:37;98024.63;;;14.70;100.00
4398;BME280;2213;49.720;7.296;2023-07-22T04:41:08;98029.22;;;14.81;100.00
4398;BME280;2213;49.720;7.296;2023-07-22T04:43:38;98021.75;;;14.78;100.00
4398;BME280;2213;49.720;7.296;2023-07-22T04:46:08;98022.94;;;14.82;100.00
4398;BME280;2213;49.720;7.296;2023-07-22T04:48:39;98028.19;;;14.82;100.00
4398;BME280;2213;49.720;7.296;2023-07-22T04:51:08;98020.81;;;14.90;100.00
4398;BME280;2213;49.720;7.296;2023-07-22T04:53:38;98017.97;;;14.92;100.00
4398;BME280;2213;49.720;7.296;2023-07-22T04:56:10;98024.09;;;14.86;100.00
4398;BME280;2213;49.720;7.296;2023-07-22T04:58:40;98017.97;;;14.92;100.00
4398;BME280;2213;49.720;7.296;2023-07-22T05:01:11;98023.69;;;14.89;100.00
4398;BME280;2213;49.720;7.296;2023-07-22T05:03:42;98024.06;;;14.92;100.00
4398;BME280;2213;49.720;7.296;2023-07-22T05:06:13;98024.00;;;14.99;100.00
4398;BME280;2213;49.720;7.296;2023-07-22T05:08:44;98026.78;;;15.04;100.00
4398;BME280;2213;49.720;7.296;2023-07-22T05:11:16;98023.13;;;15.05;100.00
4398;BME280;2213;49.720;7.296;2023-07-22T05:13:46;98029.16;;;15.12;100.00
4398;BME280;2213;49.720;7.296;2023-07-22T05:16:19;98025.91;;;15.10;100.00
4398;BME280;2213;49.720;7.296;2023-07-22T05:18:49;98024.31;;;15.09;100.00
4398;BME280;2213;49.720;7.296;2023-07-22T05:21:19;98022.25;;;15.11;100.00
4398;BME280;2213;49.720;7.296;2023-07-22T05:23:48;98016.19;;;15.10;100.00
4398;BME280;2213;49.720;7.296;2023-07-22T05:26:21;98013.72;;;15.16;100.00
4398;BME280;2213;49.720;7.296;2023-07-22T05:28:52;98021.56;;;15.22;100.00
4398;BME280;2213;49.720;7.296;2023-07-22T05:31:20;98017.31;;;15.21;100.00
4398;BME280;2213;49.720;7.296;2023-07-22T05:33:49;98013.66;;;15.22;100.00
4398;BME280;2213;49.720;7.296;2023-07-22T05:36:18;98016.88;;;15.24;100.00
4398;BME280;2213;49.720;7.296;2023-07-22T05:38:47;98020.97;;;15.20;100.00
4398;BME280;2213;49.720;7.296;2023-07-22T05:41:17;98021.81;;;15.14;100.00
4398;BME280;2213;49.720;7.296;2023-07-22T05:43:48;98019.50;;;15.24;100.00
4398;BME280;2213;49.720;7.296;2023-07-22T05:46:19;98023.19;;;15.23;100.00
4398;BME280;2213;49.720;7.296;2023-07-22T05:48:50;98023.75;;;15.25;100.00
4398;BME280;2213;49.720;7.296;2023-07-22T05:51:19;98025.59;;;15.25;100.00
4398;BME280;2213;49.720;7.296;2023-07-22T05:53:51;98023.69;;;15.32;100.00
4398;BME280;2213;49.720;7.296;2023-07-22T05:56:22;98029.34;;;15.35;100.00
4398;BME280;2213;49.720;7.296;2023-07-22T05:58:55;98023.19;;;15.41;100.00
4398;BME280;2213;49.720;7.296;2023-07-22T06:01:25;98016.25;;;15.47;100.00
4398;BME280;2213;49.720;7.296;2023-07-22T06:03:55;98020.91;;;15.51;100.00
4398;BME280;2213;49.720;7.296;2023-07-22T06:06:24;98023.09;;;15.54;100.00
4398;BME280;2213;49.720;7.296;2023-07-22T06:08:56;98024.13;;;15.53;100.00
4398;BME280;2213;49.720;7.296;2023-07-22T06:11:26;98028.38;;;15.54;100.00
4398;BME280;2213;49.720;7.296;2023-07-22T06:13:58;98026.88;;;15.58;100.00
4398;BME280;2213;49.720;7.296;2023-07-22T06:16:27;98029.13;;;15.62;100.00
4398;BME280;2213;49.720;7.296;2023-07-22T06:18:57;98032.91;;;15.66;100.00
4398;BME280;2213;49.720;7.296;2023-07-22T06:21:27;98031.22;;;15.71;100.00
4398;BME280;2213;49.720;7.296;2023-07-22T06:23:57;98039.50;;;15.75;100.00
4398;BME280;2213;49.720;7.296;2023-07-22T06:26:26;98037.00;;;15.80;100.00
4398;BME280;2213;49.720;7.296;2023-07-22T06:28:58;98040.81;;;15.84;100.00
4398;BME280;2213;49.720;7.296;2023-07-22T06:31:29;98038.91;;;15.91;100.00
4398;BME280;2213;49.720;7.296;2023-07-22T06:33:59;98043.75;;;15.94;100.00
4398;BME280;2213;49.720;7.296;2023-07-22T06:36:28;98032.75;;;15.97;100.00
4398;BME280;2213;49.720;7.296;2023-07-22T06:38:58;98040.81;;;16.02;100.00
4398;BME280;2213;49.720;7.296;2023-07-22T06:41:28;98029.38;;;16.08;100.00
4398;BME280;2213;49.720;7.296;2023-07-22T06:44:01;98036.81;;;16.11;100.00
4398;BME280;2213;49.720;7.296;2023-07-22T06:46:31;98038.97;;;16.21;100.00
4398;BME280;2213;49.720;7.296;2023-07-22T06:49:01;98036.69;;;16.24;100.00
4398;BME280;2213;49.720;7.296;2023-07-22T06:51:32;98038.44;;;16.30;100.00
4398;BME280;2213;49.720;7.296;2023-07-22T06:54:02;98041.19;;;16.35;100.00
4398;BME280;2213;49.720;7.296;2023-07-22T06:56:31;98036.84;;;16.41;100.00
4398;BME280;2213;49.720;7.296;2023-07-22T06:59:03;98034.13;;;16.47;100.00
4398;BME280;2213;49.720;7.296;2023-07-22T07:01:33;98031.97;;;16.56;100.00
4398;BME280;2213;49.720;7.296;2023-07-22T07:04:02;98029.50;;;16.61;100.00
4398;BME280;2213;49.720;7.296;2023-07-22T07:06:31;98028.38;;;16.69;100.00
4398;BME280;2213;49.720;7.296;2023-07-22T07:09:02;98030.09;;;16.75;100.00
4398;BME280;2213;49.720;7.296;2023-07-22T07:11:32;98033.91;;;16.79;100.00
4398;BME280;2213;49.720;7.296;2023-07-22T07:14:03;98040.09;;;16.84;100.00
4398;BME280;2213;49.720;7.296;2023-07-22T07:16:34;98028.63;;;16.90;100.00
4398;BME280;2213;49.720;7.296;2023-07-22T07:19:04;98034.38;;;16.99;100.00
4398;BME280;2213;49.720;7.296;2023-07-22T07:21:35;98033.47;;;17.05;100.00
4398;BME280;2213;49.720;7.296;2023-07-22T07:24:07;98029.94;;;17.11;100.00
4398;BME280;2213;49.720;7.296;2023-07-22T07:26:37;98036.34;;;17.15;100.00
4398;BME280;2213;49.720;7.296;2023-07-22T07:29:08;98026.47;;;17.22;100.00
4398;BME280;2213;49.720;7.296;2023-07-22T07:31:40;98037.72;;;17.29;100.00
4398;BME280;2213;49.720;7.296;2023-07-22T07:34:10;98030.28;;;17.38;100.00
4398;BME280;2213;49.720;7.296;2023-07-22T07:36:40;98027.50;;;17.44;100.00
4398;BME280;2213;49.720;7.296;2023-07-22T07:39:10;98032.47;;;17.52;100.00
4398;BME280;2213;49.720;7.296;2023-07-22T07:41:39;98032.56;;;17.57;100.00
4398;BME280;2213;49.720;7.296;2023-07-22T07:44:11;98034.28;;;17.64;100.00
4398;BME280;2213;49.720;7.296;2023-07-22T07:46:41;98028.09;;;17.70;100.00
4398;BME280;2213;49.720;7.296;2023-07-22T07:49:12;98040.94;;;17.78;100.00
4398;BME280;2213;49.720;7.296;2023-07-22T07:51:42;98039.44;;;17.82;100.00
4398;BME280;2213;49.720;7.296;2023-07-22T07:54:14;98043.56;;;17.89;100.00
4398;BME280;2213;49.720;7.296;2023-07-22T07:56:44;98038.72;;;17.98;100.00
4398;BME280;2213;49.720;7.296;2023-07-22T07:59:16;98035.16;;;18.04;100.00
4398;BME280;2213;49.720;7.296;2023-07-22T08:01:45;98030.53;;;18.11;100.00
4398;BME280;2213;49.720;7.296;2023-07-22T08:04:16;98028.53;;;18.18;100.00
4398;BME280;2213;49.720;7.296;2023-07-22T08:06:45;98028.63;;;18.23;100.00
4398;BME280;2213;49.720;7.296;2023-07-22T08:09:15;98036.19;;;18.31;100.00
4398;BME280;2213;49.720;7.296;2023-07-22T08:11:48;98035.25;;;18.37;100.00
4398;BME280;2213;49.720;7.296;2023-07-22T08:14:19;98035.09;;;18.44;100.00
4398;BME280;2213;49.720;7.296;2023-07-22T08:16:50;98037.41;;;18.52;100.00
4398;BME280;2213;49.720;7.296;2023-07-22T08:19:22;98037.59;;;18.62;100.00
4398;BME280;2213;49.720;7.296;2023-07-22T08:21:52;98032.94;;;18.69;100.00
4398;BME280;2213;49.720;7.296;2023-07-22T08:24:22;98039.69;;;18.77;100.00
4398;BME280;2213;49.720;7.296;2023-07-22T08:26:53;98040.34;;;18.84;100.00
4398;BME280;2213;49.720;7.296;2023-07-22T08:29:25;98033.59;;;18.93;100.00
4398;BME280;2213;49.720;7.296;2023-07-22T08:31:54;98032.06;;;18.97;99.33
4398;BME280;2213;49.720;7.296;2023-07-22T08:34:23;98030.56;;;19.01;98.76
4398;BME280;2213;49.720;7.296;2023-07-22T08:36:53;98029.81;;;19.05;98.08
4398;BME280;2213;49.720;7.296;2023-07-22T08:39:24;98032.78;;;19.09;96.93
4398;BME280;2213;49.720;7.296;2023-07-22T08:41:56;98032.00;;;19.08;93.02
4398;BME280;2213;49.720;7.296;2023-07-22T08:44:32;98037.53;;;19.07;90.92
4398;BME280;2213;49.720;7.296;2023-07-22T08:47:09;98033.59;;;19.09;90.69
4398;BME280;2213;49.720;7.296;2023-07-22T08:49:44;98038.97;;;19.15;90.37
4398;BME280;2213;49.720;7.296;2023-07-22T08:52:15;98035.84;;;19.18;89.73
4398;BME280;2213;49.720;7.296;2023-07-22T08:54:47;98032.00;;;19.25;90.12
4398;BME280;2213;49.720;7.296;2023-07-22T08:57:20;98036.56;;;19.30;89.18
4398;BME280;2213;49.720;7.296;2023-07-22T08:59:53;98038.75;;;19.33;88.42
4398;BME280;2213;49.720;7.296;2023-07-22T09:02:24;98032.94;;;19.36;87.78
4398;BME280;2213;49.720;7.296;2023-07-22T09:04:55;98023.81;;;19.43;87.14
4398;BME280;2213;49.720;7.296;2023-07-22T09:07:26;98024.44;;;19.50;86.87
4398;BME280;2213;49.720;7.296;2023-07-22T09:09:58;98028.25;;;19.59;86.56
4398;BME280;2213;49.720;7.296;2023-07-22T09:12:29;98024.13;;;19.69;85.13
4398;BME280;2213;49.720;7.296;2023-07-22T09:15:02;98017.28;;;19.73;83.07
4398;BME280;2213;49.720;7.296;2023-07-22T09:17:33;98017.09;;;19.79;82.35
4398;BME280;2213;49.720;7.296;2023-07-22T09:20:06;98018.03;;;19.90;81.63
4398;BME280;2213;49.720;7.296;2023-07-22T09:22:38;98017.03;;;19.96;78.03
4398;BME280;2213;49.720;7.296;2023-07-22T09:25:17;98015.56;;;20.05;76.90
4398;BME280;2213;49.720;7.296;2023-07-22T09:27:46;98010.88;;;20.12;75.87
4398;BME280;2213;49.720;7.296;2023-07-22T09:30:27;98002.44;;;20.20;73.54
4398;BME280;2213;49.720;7.296;2023-07-22T09:32:58;98005.25;;;20.30;73.40
4398;BME280;2213;49.720;7.296;2023-07-22T09:35:30;97997.91;;;20.37;71.09
4398;BME280;2213;49.720;7.296;2023-07-22T09:38:00;97999.28;;;20.45;72.40
4398;BME280;2213;49.720;7.296;2023-07-22T09:40:33;98010.78;;;20.50;74.21
4398;BME280;2213;49.720;7.296;2023-07-22T09:43:03;98003.41;;;20.57;74.43
4398;BME280;2213;49.720;7.296;2023-07-22T09:45:35;97993.81;;;20.56;73.66
4398;BME280;2213;49.720;7.296;2023-07-22T09:48:06;97986.94;;;20.61;74.12
4398;BME280;2213;49.720;7.296;2023-07-22T09:50:39;97989.09;;;20.64;74.45
4398;BME280;2213;49.720;7.296;2023-07-22T09:53:15;97987.44;;;20.57;74.02
4398;BME280;2213;49.720;7.296;2023-07-22T09:55:46;97999.22;;;20.67;73.34
4398;BME280;2213;49.720;7.296;2023-07-22T09:58:16;97985.69;;;20.68;71.21
4398;BME280;2213;49.720;7.296;2023-07-22T10:00:48;97986.81;;;20.77;70.48
4398;BME280;2213;49.720;7.296;2023-07-22T10:03:19;97988.72;;;20.82;69.91
4398;BME280;2213;49.720;7.296;2023-07-22T10:05:51;97983.47;;;20.92;68.41
4398;BME280;2213;49.720;7.296;2023-07-22T10:08:23;97995.50;;;20.99;67.81
4398;BME280;2213;49.720;7.296;2023-07-22T10:10:55;97987.84;;;21.08;66.51
4398;BME280;2213;49.720;7.296;2023-07-22T10:13:27;97985.56;;;21.17;66.63
4398;BME280;2213;49.720;7.296;2023-07-22T10:16:00;97986.13;;;21.24;65.87
4398;BME280;2213;49.720;7.296;2023-07-22T10:18:32;97989.63;;;21.29;64.35
4398;BME280;2213;49.720;7.296;2023-07-22T10:21:03;97993.31;;;21.28;60.89
4398;BME280;2213;49.720;7.296;2023-07-22T10:23:34;97984.28;;;21.29;61.14
4398;BME280;2213;49.720;7.296;2023-07-22T10:26:06;97982.44;;;21.30;61.25
4398;BME280;2213;49.720;7.296;2023-07-22T10:28:37;97986.41;;;21.27;61.07
4398;BME280;2213;49.720;7.296;2023-07-22T10:31:09;97990.13;;;21.26;60.93
4398;BME280;2213;49.720;7.296;2023-07-22T10:33:42;97978.44;;;21.27;61.14
4398;BME280;2213;49.720;7.296;2023-07-22T10:36:16;97982.72;;;21.33;61.79
4398;BME280;2213;49.720;7.296;2023-07-22T10:38:55;97985.63;;;21.32;61.62
4398;BME280;2213;49.720;7.296;2023-07-22T10:41:29;97980.88;;;21.34;61.65
4398;BME280;2213;49.720;7.296;2023-07-22T10:44:00;97979.53;;;21.36;62.36
4398;BME280;2213;49.720;7.296;2023-07-22T10:46:36;97987.06;;;21.44;62.36
4398;BME280;2213;49.720;7.296;2023-07-22T10:49:13;97986.00;;;21.50;63.24
4398;BME280;2213;49.720;7.296;2023-07-22T10:51:49;97980.69;;;21.50;63.17
4398;BME280;2213;49.720;7.296;2023-07-22T10:54:34;97979.06;;;21.49;62.91
4398;BME280;2213;49.720;7.296;2023-07-22T10:57:23;97979.88;;;21.50;63.20
4398;BME280;2213;49.720;7.296;2023-07-22T10:59:55;97980.44;;;21.57;63.38
4398;BME280;2213;49.720;7.296;2023-07-22T11:02:28;97976.22;;;21.61;63.61
4398;BME280;2213;49.720;7.296;2023-07-22T11:04:59;97967.75;;;21.69;63.95
4398;BME280;2213;49.720;7.296;2023-07-22T11:07:33;97975.50;;;21.76;63.59
4398;BME280;2213;49.720;7.296;2023-07-22T11:10:15;97975.50;;;21.76;61.68
4398;BME280;2213;49.720;7.296;2023-07-22T11:12:48;97958.44;;;21.77;61.77
4398;BME280;2213;49.720;7.296;2023-07-22T11:15:17;97947.81;;;21.87;62.40
4398;BME280;2213;49.720;7.296;2023-07-22T11:17:49;97956.94;;;21.96;62.63
4398;BME280;2213;49.720;7.296;2023-07-22T11:20:22;97956.41;;;21.99;60.30
4398;BME280;2213;49.720;7.296;2023-07-22T11:22:51;97952.69;;;22.00;59.06
4398;BME280;2213;49.720;7.296;2023-07-22T11:25:22;97945.78;;;22.04;57.26
4398;BME280;2213;49.720;7.296;2023-07-22T11:27:53;97955.91;;;22.07;57.77
4398;BME280;2213;49.720;7.296;2023-07-22T11:30:25;97942.34;;;22.14;57.28
4398;BME280;2213;49.720;7.296;2023-07-22T11:32:59;97944.75;;;22.20;57.65
4398;BME280;2213;49.720;7.296;2023-07-22T11:35:31;97945.28;;;22.22;57.66
4398;BME280;2213;49.720;7.296;2023-07-22T11:38:03;97942.63;;;22.27;56.41
4398;BME280;2213;49.720;7.296;2023-07-22T11:40:34;97940.50;;;22.29;53.86
4398;BME280;2213;49.720;7.296;2023-07-22T11:43:04;97945.81;;;22.29;53.57
4398;BME280;2213;49.720;7.296;2023-07-22T11:45:39;97940.50;;;22.29;53.51
4398;BME280;2213;49.720;7.296;2023-07-22T11:48:12;97927.16;;;22.29;53.47
4398;BME280;2213;49.720;7.296;2023-07-22T11:51:03;97924.50;;;22.39;53.41
4398;BME280;2213;49.720;7.296;2023-07-22T11:53:34;97919.19;;;22.44;53.79
4398;BME280;2213;49.720;7.296;2023-07-22T11:56:05;97922.13;;;22.48;53.64
4398;BME280;2213;49.720;7.296;2023-07-22T11:58:35;97922.41;;;22.51;52.20
4398;BME280;2213;49.720;7.296;2023-07-22T12:01:10;97921.06;;;22.54;52.66
4398;BME280;2213;49.720;7.296;2023-07-22T12:03:41;97916.78;;;22.63;53.36
4398;BME280;2213;49.720;7.296;2023-07-22T12:06:13;97918.69;;;22.73;53.07
4398;BME280;2213;49.720;7.296;2023-07-22T12:08:45;97920.53;;;22.77;52.79
4398;BME280;2213;49.720;7.296;2023-07-22T12:11:20;97917.88;;;22.77;52.45
4398;BME280;2213;49.720;7.296;2023-07-22T12:14:06;97909.88;;;22.82;52.20
4398;BME280;2213;49.720;7.296;2023-07-22T12:16:40;97917.34;;;22.85;52.35
4398;BME280;2213;49.720;7.296;2023-07-22T12:19:12;97913.59;;;22.91;52.06
4398;BME280;2213;49.720;7.296;2023-07-22T12:21:41;97910.09;;;22.91;51.35
4398;BME280;2213;49.720;7.296;2023-07-22T12:24:16;97904.22;;;22.99;51.31
4398;BME280;2213;49.720;7.296;2023-07-22T12:26:47;97907.16;;;23.08;51.96
4398;BME280;2213;49.720;7.296;2023-07-22T12:29:18;97911.94;;;23.16;49.02
4398;BME280;2213;49.720;7.296;2023-07-22T12:31:47;97912.22;;;23.14;48.52
4398;BME280;2213;49.720;7.296;2023-07-22T12:34:18;97910.06;;;23.21;47.59
4398;BME280;2213;49.720;7.296;2023-07-22T12:36:49;97906.81;;;23.29;48.70
4398;BME280;2213;49.720;7.296;2023-07-22T12:39:20;97907.38;;;23.26;48.05
4398;BME280;2213;49.720;7.296;2023-07-22T12:41:49;97912.44;;;23.23;47.98
4398;BME280;2213;49.720;7.296;2023-07-22T12:44:20;97896.13;;;23.29;48.22
4398;BME280;2213;49.720;7.296;2023-07-22T12:46:52;97890.00;;;23.34;48.55
4398;BME280;2213;49.720;7.296;2023-07-22T12:49:22;97883.31;;;23.41;48.39
4398;BME280;2213;49.720;7.296;2023-07-22T12:51:52;97884.94;;;23.42;48.02
4398;BME280;2213;49.720;7.296;2023-07-22T12:54:22;97897.19;;;23.48;48.24
4398;BME280;2213;49.720;7.296;2023-07-22T12:56:56;97887.31;;;23.44;47.60
4398;BME280;2213;49.720;7.296;2023-07-22T12:59:48;97884.09;;;23.47;47.15
4398;BME280;2213;49.720;7.296;2023-07-22T13:02:17;97887.00;;;23.50;47.15
4398;BME280;2213;49.720;7.296;2023-07-22T13:04:48;97877.63;;;23.58;47.19
4398;BME280;2213;49.720;7.296;2023-07-22T13:07:18;97871.50;;;23.58;46.53
4398;BME280;2213;49.720;7.296;2023-07-22T13:09:48;97878.44;;;23.59;46.97
4398;BME280;2213;49.720;7.296;2023-07-22T13:12:21;97873.59;;;23.66;47.32
4398;BME280;2213;49.720;7.296;2023-07-22T13:14:51;97882.66;;;23.70;47.03
4398;BME280;2213;49.720;7.296;2023-07-22T13:17:20;97882.63;;;23.75;47.48
4398;BME280;2213;49.720;7.296;2023-07-22T13:19:51;97880.50;;;23.77;47.45
4398;BME280;2213;49.720;7.296;2023-07-22T13:22:19;97890.88;;;23.83;47.64
4398;BME280;2213;49.720;7.296;2023-07-22T13:24:49;97882.06;;;23.83;47.43
4398;BME280;2213;49.720;7.296;2023-07-22T13:27:19;97883.34;;;23.90;47.10
4398;BME280;2213;49.720;7.296;2023-07-22T13:29:50;97875.59;;;23.89;47.05
4398;BME280;2213;49.720;7.296;2023-07-22T13:32:20;97885.41;;;23.98;47.45
4398;BME280;2213;49.720;7.296;2023-07-22T13:34:51;97880.28;;;24.07;47.39
4398;BME280;2213;49.720;7.296;2023-07-22T13:37:23;97871.47;;;24.06;47.09